.
WxDataArchive / Data Records for 2015-03-22
2015-03-21 March 2015 2015-03-23

Data Records for Sunday, 22 March 2015

Time	Temp	Chill	HIndex	Humid	Dewpt	 Wind 	HiWind	WindDir	Rain 	Barom
-----	----	-----	------	-----	-----	------	------	-------	-----	-----
00:00	32.9	32.9	32.9	58	19.8	0	0	---	0.00	30.211 
00:05	32.7	32.7	32.7	59	20.0	0	0	---	0.00	30.211 
00:10	32.5	32.5	32.5	60	20.2	0	0	---	0.00	30.211 
00:15	32.4	32.4	32.4	61	20.5	0	0	---	0.00	30.221 
00:20	32.1	32.1	32.1	62	20.6	0	0	---	0.00	30.221 
00:25	31.8	31.8	31.8	62	20.3	0	0	---	0.00	30.221 
00:30	31.5	31.5	31.5	62	20.0	0	0	---	0.00	30.230 
00:35	31.5	31.5	31.5	62	20.0	0	0	---	0.00	30.230 
00:40	31.5	31.5	31.5	63	20.4	0	0	---	0.00	30.230 
00:45	31.8	31.8	31.8	62	20.3	0	0	---	0.00	30.235 
00:50	31.9	31.9	31.9	62	20.4	0	0	---	0.00	30.235 
00:55	32.1	32.1	32.1	62	20.6	0	0	---	0.00	30.235 
01:00	32.2	32.2	32.2	61	20.3	0	0	---	0.00	30.231 
01:05	32.4	32.4	32.4	61	20.5	0	0	---	0.00	30.231 
01:10	32.4	32.4	32.4	61	20.5	0	0	---	0.00	30.231 
01:15	32.2	32.2	32.2	61	20.3	0	0	---	0.00	30.226 
01:20	31.9	31.9	31.9	61	20.0	0	0	---	0.00	30.226 
01:25	31.6	31.6	31.6	62	20.1	0	0	---	0.00	30.226 
01:30	31.3	31.3	31.3	62	19.8	0	0	---	0.00	30.222 
01:35	31.0	31.0	31.0	63	19.9	0	0	---	0.00	30.222 
01:40	30.7	30.7	30.7	63	19.6	0	0	---	0.00	30.222 
01:45	30.4	30.4	30.4	64	19.7	0	0	---	0.00	30.210 
01:50	30.3	30.3	30.3	64	19.6	0	0	---	0.00	30.210 
01:55	30.1	30.1	30.1	64	19.4	0	0	---	0.00	30.210 
02:00	30.0	30.0	30.0	64	19.3	0	0	---	0.00	30.198 
02:05	30.0	30.0	30.0	64	19.3	0	0	---	0.00	30.198 
02:10	30.0	30.0	30.0	64	19.3	0	0	---	0.00	30.198 
02:15	30.0	30.0	30.0	63	19.0	0	0	---	0.00	30.195 
02:20	30.0	30.0	30.0	62	18.6	0	0	---	0.00	30.195 
02:25	30.1	30.1	30.1	61	18.3	0	0	---	0.00	30.195 
02:30	30.3	30.3	30.3	60	18.1	0	0	---	0.00	30.192 
02:35	30.4	30.4	30.4	60	18.2	0	0	---	0.00	30.192 
02:40	30.4	30.4	30.4	59	17.8	0	0	---	0.00	30.192 
02:45	30.4	30.4	30.4	59	17.8	0	0	---	0.00	30.208 
02:50	30.4	30.4	30.4	58	17.4	0	0	---	0.00	30.208 
02:55	30.4	30.4	30.4	58	17.4	0	0	---	0.00	30.208 
03:00	30.4	30.4	30.4	58	17.4	0	0	---	0.00	30.197 
03:05	30.4	30.4	30.4	58	17.4	0	0	---	0.00	30.197 
03:10	30.4	30.4	30.4	58	17.4	0	0	---	0.00	30.197 
03:15	30.4	30.4	30.4	58	17.4	0	0	---	0.00	30.196 
03:20	30.4	30.4	30.4	58	17.4	0	0	---	0.00	30.196 
03:25	30.3	30.3	30.3	58	17.3	0	0	---	0.00	30.196 
03:30	30.3	30.3	30.3	57	16.9	0	0	---	0.00	30.198 
03:35	30.3	30.3	30.3	58	17.3	0	0	---	0.00	30.198 
03:40	30.3	30.3	30.3	58	17.3	0	0	---	0.00	30.198 
03:45	30.1	30.1	30.1	58	17.1	0	0	---	0.00	30.186 
03:50	30.0	30.0	30.0	58	17.0	0	0	---	0.00	30.186 
03:55	29.8	29.8	29.8	58	16.8	0	0	---	0.00	30.186 
04:00	29.8	29.8	29.8	58	16.8	0	0	---	0.00	30.196 
04:05	29.8	29.8	29.8	58	16.8	0	1	270	0.00	30.196 
04:10	29.8	29.8	29.8	57	16.4	0	1	270	0.00	30.196 
04:15	30.1	30.1	30.1	55	15.9	0	1	270	0.00	30.186 
04:20	30.4	30.4	30.4	55	16.2	0	2	270	0.00	30.186 
04:25	30.6	30.6	30.6	54	16.0	0	2	315	0.00	30.186 
04:30	30.7	30.7	30.7	54	16.0	0	1	315	0.00	30.196 
04:35	30.7	30.7	30.7	54	16.0	0	1	315	0.00	30.196 
04:40	30.7	30.7	30.7	54	16.0	0	1	315	0.00	30.196 
04:45	30.7	30.7	30.7	54	16.0	0	2	315	0.00	30.204 
04:50	30.7	30.7	30.7	54	16.0	0	2	68	0.00	30.204 
04:55	30.7	30.7	30.7	54	16.0	0	1	68	0.00	30.204 
05:00	30.6	30.6	30.6	54	16.0	0	2	68	0.00	30.212 
05:05	30.6	30.6	30.6	54	16.0	0	1	68	0.00	30.212 
05:10	30.4	30.4	30.4	54	15.8	0	1	68	0.00	30.212 
05:15	30.3	30.3	30.3	55	16.1	0	0	---	0.00	30.221 
05:20	30.1	30.1	30.1	56	16.3	0	0	---	0.00	30.221 
05:25	30.0	30.0	30.0	56	16.2	0	1	68	0.00	30.221 
05:30	30.0	30.0	30.0	57	16.6	0	2	68	0.00	30.220 
05:35	29.8	29.8	29.8	57	16.4	0	3	68	0.00	30.220 
05:40	29.8	29.8	29.8	58	16.8	0	2	68	0.00	30.220 
05:45	29.7	29.7	29.7	59	17.1	1	3	68	0.00	30.230 
05:50	29.7	29.7	29.7	59	17.1	1	6	112	0.00	30.230 
05:55	29.7	29.7	29.7	60	17.5	1	4	112	0.00	30.230 
06:00	29.5	29.5	29.5	61	17.7	1	6	90	0.00	30.234 
06:05	29.4	29.4	29.4	61	17.6	0	4	90	0.00	30.234 
06:10	29.3	29.3	29.3	62	17.9	1	5	90	0.00	30.234 
06:15	29.1	29.1	29.1	63	18.1	1	5	90	0.00	30.238 
06:20	29.0	29.0	29.0	64	18.4	2	9	112	0.00	30.238 
06:25	29.0	29.0	29.0	65	18.7	2	7	90	0.00	30.238 
06:30	28.8	28.8	28.8	65	18.5	1	5	90	0.00	30.239 
06:35	28.7	28.7	28.7	66	18.8	2	7	90	0.00	30.239 
06:40	28.7	28.7	28.7	67	19.2	2	9	112	0.00	30.239 
06:45	28.5	28.5	28.5	68	19.3	2	7	90	0.00	30.247 
06:50	28.4	28.4	28.4	69	19.5	1	5	112	0.00	30.247 
06:55	28.2	28.2	28.2	69	19.4	0	1	112	0.00	30.247 
07:00	28.1	28.1	28.1	71	19.9	1	3	112	0.00	30.253 
07:05	27.8	27.8	27.8	72	20.0	1	3	112	0.00	30.253 
07:10	27.8	27.8	27.8	73	20.3	1	4	112	0.00	30.253 
07:15	27.6	27.6	27.6	73	20.1	1	3	112	0.00	30.256 
07:20	27.5	27.5	27.5	74	20.3	1	5	112	0.00	30.256 
07:25	27.5	27.5	27.5	75	20.6	1	3	90	0.00	30.256 
07:30	27.3	27.3	27.3	76	20.8	0	2	90	0.00	30.265 
07:35	27.2	27.2	27.2	76	20.7	1	3	90	0.00	30.265 
07:40	27.0	27.0	27.0	76	20.5	2	4	90	0.00	30.265 
07:45	27.0	27.0	27.0	76	20.5	1	4	90	0.00	30.271 
07:50	26.9	26.9	26.9	76	20.4	1	6	90	0.00	30.271 
07:55	26.9	26.9	26.9	75	20.1	2	6	90	0.00	30.271 
08:00	26.9	26.9	26.9	74	19.7	2	5	90	0.00	30.275 
08:05	26.7	26.7	26.7	71	18.6	2	6	90	0.00	30.275 
08:10	26.9	26.9	26.9	69	18.1	2	5	90	0.00	30.275 
08:15	26.9	26.9	26.9	66	17.1	3	6	90	0.00	30.286 
08:20	27.0	27.0	27.0	65	16.8	2	8	112	0.00	30.286 
08:25	27.2	27.2	27.2	63	16.3	2	7	112	0.00	30.286 
08:30	27.3	27.3	27.3	63	16.4	2	5	90	0.00	30.287 
08:35	27.6	27.6	27.6	64	17.0	2	5	90	0.00	30.287 
08:40	27.8	27.8	27.8	64	17.2	2	7	90	0.00	30.287 
08:45	27.8	23.2	27.8	63	16.9	4	11	90	0.00	30.287 
08:50	27.8	23.2	27.8	59	15.4	4	13	112	0.00	30.287 
08:55	27.8	23.2	27.8	58	15.0	4	11	112	0.00	30.287 
09:00	27.8	23.2	27.8	56	14.2	4	11	90	0.00	30.294 
09:05	27.9	22.3	27.9	54	13.4	5	10	90	0.00	30.294 
09:10	27.9	22.3	27.9	53	13.0	5	11	112	0.00	30.294 
09:15	28.2	28.2	28.2	53	13.3	2	9	90	0.00	30.304 
09:20	28.4	28.4	28.4	51	12.6	3	9	90	0.00	30.304 
09:25	28.4	22.8	28.4	51	12.6	5	10	112	0.00	30.304 
09:30	28.5	28.5	28.5	51	12.7	3	8	90	0.00	30.306 
09:35	28.5	24.0	28.5	50	12.3	4	11	90	0.00	30.306 
09:40	28.5	24.0	28.5	51	12.7	4	10	90	0.00	30.306 
09:45	28.7	28.7	28.7	51	12.9	3	11	112	0.00	30.306 
09:50	28.8	24.4	28.8	50	12.5	4	10	90	0.00	30.306 
09:55	29.0	29.0	29.0	50	12.7	3	11	90	0.00	30.306 
10:00	29.3	29.3	29.3	51	13.4	2	7	112	0.00	30.306 
10:05	29.8	25.5	29.8	49	13.0	4	9	90	0.00	30.306 
10:10	30.6	30.6	30.6	49	13.7	3	8	112	0.00	30.306 
10:15	31.0	31.0	31.0	49	14.1	3	7	112	0.00	30.306 
10:20	31.2	27.2	31.2	48	13.8	4	10	90	0.00	30.306 
10:25	31.3	31.3	31.3	48	13.9	3	10	112	0.00	30.306 
10:30	31.6	31.6	31.6	48	14.2	2	6	112	0.00	30.312 
10:35	31.8	31.8	31.8	46	13.4	2	9	22	0.00	30.312 
10:40	31.9	31.9	31.9	47	14.0	2	9	90	0.00	30.312 
10:45	31.8	31.8	31.8	47	13.9	2	6	90	0.00	30.315 
10:50	31.6	31.6	31.6	47	13.7	3	9	90	0.00	30.315 
10:55	31.8	31.8	31.8	46	13.4	3	9	112	0.00	30.315 
11:00	32.1	32.1	32.1	44	12.7	3	9	112	0.00	30.314 
11:05	32.1	32.1	32.1	43	12.2	3	7	90	0.00	30.314 
11:10	32.2	32.2	32.2	43	12.2	2	7	112	0.00	30.314 
11:15	33.1	33.1	33.1	43	13.1	2	7	112	0.00	30.316 
11:20	33.1	29.3	33.1	40	11.4	4	10	112	0.00	30.316 
11:25	33.1	33.1	33.1	45	14.1	2	8	90	0.00	30.316 
11:30	33.1	29.3	33.1	43	13.1	4	9	112	0.00	30.317 
11:35	33.1	33.1	33.1	45	14.1	3	7	90	0.00	30.317 
11:40	33.5	29.8	33.5	43	13.4	4	11	90	0.00	30.317 
11:45	33.4	33.4	33.4	43	13.3	3	9	90	0.00	30.322 
11:50	33.7	33.7	33.7	43	13.6	3	10	90	0.00	30.322 
11:55	33.7	33.7	33.7	43	13.6	2	7	0	0.00	30.322 
12:00	34.0	34.0	34.0	43	13.9	1	5	0	0.00	30.321 
12:05	34.4	34.4	34.4	42	13.7	2	7	0	0.00	30.321 
12:10	34.1	29.5	34.1	39	11.8	5	9	112	0.00	30.321 
12:15	33.8	33.8	33.8	42	13.2	3	6	112	0.00	30.311 
12:20	33.7	33.7	33.7	40	12.0	3	8	112	0.00	30.311 
12:25	33.8	33.8	33.8	41	12.6	1	5	112	0.00	30.311 
12:30	33.5	33.5	33.5	40	11.8	3	11	112	0.00	30.306 
12:35	33.5	33.5	33.5	41	12.4	2	5	90	0.00	30.306 
12:40	33.8	33.8	33.8	40	12.1	1	3	90	0.00	30.306 
12:45	34.0	34.0	34.0	40	12.2	3	7	112	0.00	30.307 
12:50	34.7	34.7	34.7	42	14.0	2	6	112	0.00	30.307 
12:55	35.5	35.5	35.5	39	13.0	2	7	90	0.00	30.307 
13:00	35.8	35.8	35.8	40	13.9	2	6	112	0.00	30.304 
13:05	36.5	36.5	36.5	42	15.6	2	6	112	0.00	30.304 
13:10	37.0	37.0	37.0	39	14.4	2	5	112	0.00	30.304 
13:15	37.3	37.3	37.3	38	14.0	2	7	112	0.00	30.299 
13:20	37.3	37.3	37.3	37	13.4	1	5	90	0.00	30.299 
13:25	36.8	33.6	36.8	38	13.6	4	8	112	0.00	30.299 
13:30	36.6	36.6	36.6	41	15.2	3	7	112	0.00	30.293 
13:35	37.0	37.0	37.0	41	15.5	2	7	112	0.00	30.293 
13:40	37.3	37.3	37.3	40	15.2	2	7	45	0.00	30.293 
13:45	37.5	37.5	37.5	36	13.0	3	9	112	0.00	30.286 
13:50	37.6	37.6	37.6	39	14.9	1	6	90	0.00	30.286 
13:55	37.6	37.6	37.6	37	13.7	2	11	45	0.00	30.286 
14:00	37.6	37.6	37.6	40	15.5	1	5	112	0.00	30.283 
14:05	37.8	37.8	37.8	39	15.1	2	7	112	0.00	30.283 
14:10	37.6	37.6	37.6	37	13.7	2	10	90	0.00	30.283 
14:15	38.0	38.0	38.0	39	15.3	2	9	68	0.00	30.278 
14:20	38.2	38.2	38.2	38	14.9	2	7	45	0.00	30.278 
14:25	38.0	35.0	38.0	38	14.7	4	9	112	0.00	30.278 
14:30	38.2	38.2	38.2	37	14.2	1	4	22	0.00	30.270 
14:35	38.3	38.3	38.3	39	15.5	1	4	68	0.00	30.270 
14:40	38.3	38.3	38.3	37	14.3	1	4	22	0.00	30.270 
14:45	38.0	38.0	38.0	35	12.8	2	6	90	0.00	30.258 
14:50	38.5	38.5	38.5	39	15.7	1	4	90	0.00	30.258 
14:55	38.6	38.6	38.6	36	14.0	1	4	315	0.00	30.258 
15:00	38.6	38.6	38.6	36	14.0	1	3	315	0.00	30.257 
15:05	39.1	39.1	39.1	37	15.1	2	7	90	0.00	30.257 
15:10	39.1	39.1	39.1	37	15.1	1	3	68	0.00	30.257 
15:15	38.9	38.9	38.9	38	15.5	2	5	112	0.00	30.250 
15:20	38.9	38.9	38.9	37	14.9	3	10	112	0.00	30.250 
15:25	38.6	38.6	38.6	36	14.0	2	5	90	0.00	30.250 
15:30	38.3	35.4	38.3	37	14.3	4	10	90	0.00	30.240 
15:35	38.5	38.5	38.5	37	14.5	0	2	112	0.00	30.240 
15:40	38.8	38.8	38.8	36	14.2	2	7	112	0.00	30.240 
15:45	39.1	39.1	39.1	36	14.4	2	5	112	0.00	30.237 
15:50	39.1	39.1	39.1	37	15.1	2	6	112	0.00	30.237 
15:55	39.3	39.3	39.3	34	13.3	1	5	338	0.00	30.237 
16:00	39.9	39.9	39.9	36	15.1	1	7	0	0.00	30.225 
16:05	40.3	40.3	40.3	34	14.2	1	3	68	0.00	30.225 
16:10	40.6	40.6	40.6	36	15.8	2	7	90	0.00	30.225 
16:15	40.5	40.5	40.5	34	14.4	1	7	338	0.00	30.220 
16:20	40.3	40.3	40.3	32	12.8	2	6	90	0.00	30.220 
16:25	40.2	40.2	40.2	35	14.8	1	4	90	0.00	30.220 
16:30	40.1	40.1	40.1	35	14.7	2	5	112	0.00	30.221 
16:35	40.3	40.3	40.3	36	15.5	1	5	90	0.00	30.221 
16:40	40.5	40.5	40.5	33	13.7	1	7	68	0.00	30.221 
16:45	40.5	40.5	40.5	34	14.4	1	5	90	0.00	30.221 
16:50	40.2	40.2	40.2	33	13.4	2	9	112	0.00	30.221 
16:55	39.9	39.9	39.9	33	13.2	1	6	112	0.00	30.221 
17:00	40.2	40.2	40.2	33	13.4	1	4	112	0.00	30.220 
17:05	40.6	40.6	40.6	33	13.8	1	4	0	0.00	30.220 
17:10	40.8	40.8	40.8	32	13.3	1	5	338	0.00	30.220 
17:15	40.6	40.6	40.6	31	12.4	1	2	45	0.00	30.222 
17:20	40.5	40.5	40.5	32	13.0	0	2	45	0.00	30.222 
17:25	40.5	40.5	40.5	32	13.0	1	5	45	0.00	30.222 
17:30	40.5	40.5	40.5	32	13.0	0	2	45	0.00	30.219 
17:35	40.5	40.5	40.5	33	13.7	0	2	45	0.00	30.219 
17:40	40.5	40.5	40.5	33	13.7	1	4	90	0.00	30.219 
17:45	40.5	40.5	40.5	34	14.4	1	5	112	0.00	30.214 
17:50	40.5	40.5	40.5	32	13.0	1	5	68	0.00	30.214 
17:55	40.3	40.3	40.3	34	14.2	1	5	90	0.00	30.214 
18:00	40.5	40.5	40.5	32	13.0	0	2	45	0.00	30.209 
18:05	40.5	40.5	40.5	34	14.4	1	3	45	0.00	30.209 
18:10	40.3	40.3	40.3	35	14.8	1	3	45	0.00	30.209 
18:15	40.2	40.2	40.2	36	15.4	1	4	90	0.00	30.213 
18:20	39.9	39.9	39.9	36	15.1	2	5	90	0.00	30.213 
18:25	39.6	39.6	39.6	37	15.5	1	4	68	0.00	30.213 
18:30	39.5	39.5	39.5	36	14.8	3	5	90	0.00	30.212 
18:35	39.2	39.2	39.2	37	15.1	2	5	112	0.00	30.212 
18:40	39.1	39.1	39.1	38	15.7	3	7	112	0.00	30.212 
18:45	38.9	38.9	38.9	37	14.9	1	5	68	0.00	30.215 
18:50	38.9	38.9	38.9	37	14.9	2	5	90	0.00	30.215 
18:55	38.8	38.8	38.8	37	14.8	3	5	90	0.00	30.215 
19:00	38.5	38.5	38.5	37	14.5	2	5	90	0.00	30.214 
19:05	38.5	38.5	38.5	38	15.1	1	4	90	0.00	30.214 
19:10	38.5	38.5	38.5	38	15.1	1	4	90	0.00	30.214 
19:15	38.5	38.5	38.5	37	14.5	1	6	90	0.00	30.219 
19:20	38.3	38.3	38.3	38	14.9	1	4	68	0.00	30.219 
19:25	38.2	38.2	38.2	38	14.9	1	3	68	0.00	30.219 
19:30	38.2	38.2	38.2	38	14.9	2	5	90	0.00	30.224 
19:35	38.0	38.0	38.0	38	14.7	1	4	90	0.00	30.224 
19:40	37.9	37.9	37.9	38	14.6	1	3	90	0.00	30.224 
19:45	37.8	37.8	37.8	38	14.5	1	3	90	0.00	30.221 
19:50	37.6	37.6	37.6	38	14.3	2	5	90	0.00	30.221 
19:55	37.5	37.5	37.5	38	14.2	1	2	90	0.00	30.221 
20:00	37.3	37.3	37.3	38	14.0	1	3	90	0.00	30.219 
20:05	37.3	37.3	37.3	38	14.0	1	4	90	0.00	30.219 
20:10	37.2	37.2	37.2	39	14.6	0	1	90	0.00	30.219 
20:15	37.0	37.0	37.0	39	14.4	1	3	90	0.00	30.226 
20:20	36.9	36.9	36.9	40	14.9	1	2	90	0.00	30.226 
20:25	36.9	36.9	36.9	40	14.9	1	3	90	0.00	30.226 
20:30	36.8	36.8	36.8	40	14.8	2	4	90	0.00	30.229 
20:35	36.6	36.6	36.6	39	14.0	2	4	90	0.00	30.229 
20:40	36.5	36.5	36.5	39	13.9	2	4	90	0.00	30.229 
20:45	36.3	36.3	36.3	39	13.7	1	3	90	0.00	30.231 
20:50	36.2	36.2	36.2	39	13.7	1	3	90	0.00	30.231 
20:55	35.9	35.9	35.9	40	14.0	1	4	90	0.00	30.231 
21:00	35.8	35.8	35.8	41	14.4	0	2	90	0.00	30.229 
21:05	35.6	35.6	35.6	41	14.2	0	2	90	0.00	30.229 
21:10	35.5	35.5	35.5	42	14.7	0	2	90	0.00	30.229 
21:15	35.3	35.3	35.3	42	14.5	0	2	90	0.00	30.229 
21:20	35.0	35.0	35.0	43	14.8	0	1	90	0.00	30.229 
21:25	34.9	34.9	34.9	43	14.7	0	1	90	0.00	30.229 
21:30	34.7	34.7	34.7	44	15.0	0	2	90	0.00	30.229 
21:35	34.6	34.6	34.6	43	14.4	0	2	90	0.00	30.229 
21:40	34.4	34.4	34.4	43	14.2	0	2	90	0.00	30.229 
21:45	34.4	34.4	34.4	43	14.2	0	1	90	0.00	30.233 
21:50	34.3	34.3	34.3	43	14.2	0	2	90	0.00	30.233 
21:55	34.3	34.3	34.3	43	14.2	0	1	90	0.00	30.233 
22:00	34.3	34.3	34.3	43	14.2	0	1	90	0.00	30.233 
22:05	34.3	34.3	34.3	44	14.7	0	1	90	0.00	30.233 
22:10	34.1	34.1	34.1	43	14.0	0	0	---	0.00	30.233 
22:15	34.1	34.1	34.1	44	14.5	0	0	---	0.00	30.230 
22:20	34.0	34.0	34.0	45	14.9	0	0	---	0.00	30.230 
22:25	33.8	33.8	33.8	46	15.2	0	0	---	0.00	30.230 
22:30	33.7	33.7	33.7	46	15.1	0	0	---	0.00	30.228 
22:35	33.5	33.5	33.5	45	14.5	0	1	90	0.00	30.228 
22:40	33.7	33.7	33.7	44	14.1	0	1	90	0.00	30.228 
22:45	33.8	33.8	33.8	44	14.2	0	2	90	0.00	30.228 
22:50	34.0	34.0	34.0	44	14.4	0	1	90	0.00	30.228 
22:55	34.0	34.0	34.0	44	14.4	0	2	90	0.00	30.228 
23:00	33.8	33.8	33.8	45	14.7	0	1	90	0.00	30.230 
23:05	33.8	33.8	33.8	46	15.2	0	1	90	0.00	30.230 
23:10	33.7	33.7	33.7	46	15.1	0	0	---	0.00	30.230 
23:15	33.5	33.5	33.5	47	15.5	0	1	90	0.00	30.229 
23:20	33.5	33.5	33.5	47	15.5	0	1	90	0.00	30.229 
23:25	33.5	33.5	33.5	48	15.9	0	2	90	0.00	30.229 
23:30	33.7	33.7	33.7	48	16.1	0	1	90	0.00	30.236 
23:35	33.8	33.8	33.8	48	16.2	0	1	90	0.00	30.236 
23:40	33.8	33.8	33.8	48	16.2	0	2	90	0.00	30.236 
23:45	33.8	33.8	33.8	48	16.2	0	1	90	0.00	30.240 
23:50	33.8	33.8	33.8	49	16.7	0	1	90	0.00	30.240 
23:55	33.8	33.8	33.8	49	16.7	0	1	90	0.00	30.240 

CoCoRaHS
IN-AL-39
A2 Web Hosting
Creative Commons License
GoDaddy
search engine by freefind advanced

loaded 2018-11-13 17:01:52 • last modified 2010-11-18 10:43:29
Privacy PolicyDisclaimer
• wx.awcolley.com is powered by PmWiki v.2002016 •
• all content (unless otherwise noted) © 2018 A W Colley